sensor_id;sensor_type;location;lat;lon;timestamp;temperature;humidity
4749;DHT22;2388;53.582;9.962;2022-11-03T00:02:23;9.70;99.90
4749;DHT22;2388;53.582;9.962;2022-11-03T00:04:48;9.60;99.90
4749;DHT22;2388;53.582;9.962;2022-11-03T00:07:19;9.60;99.90
4749;DHT22;2388;53.582;9.962;2022-11-03T00:09:45;9.60;99.90
4749;DHT22;2388;53.582;9.962;2022-11-03T00:12:11;9.60;99.90
4749;DHT22;2388;53.582;9.962;2022-11-03T00:14:37;9.70;99.90
4749;DHT22;2388;53.582;9.962;2022-11-03T00:17:02;9.60;99.90
4749;DHT22;2388;53.582;9.962;2022-11-03T00:19:28;9.60;99.90
4749;DHT22;2388;53.582;9.962;2022-11-03T00:21:53;9.50;99.90
4749;DHT22;2388;53.582;9.962;2022-11-03T00:24:19;9.50;99.90
4749;DHT22;2388;53.582;9.962;2022-11-03T00:26:44;9.50;99.90
4749;DHT22;2388;53.582;9.962;2022-11-03T00:29:13;9.50;99.90
4749;DHT22;2388;53.582;9.962;2022-11-03T00:31:41;9.50;99.90
4749;DHT22;2388;53.582;9.962;2022-11-03T00:34:07;9.50;99.90
4749;DHT22;2388;53.582;9.962;2022-11-03T00:36:39;9.50;99.90
4749;DHT22;2388;53.582;9.962;2022-11-03T00:39:05;9.50;99.90
4749;DHT22;2388;53.582;9.962;2022-11-03T00:41:31;9.50;99.90
4749;DHT22;2388;53.582;9.962;2022-11-03T00:43:57;9.50;99.90
4749;DHT22;2388;53.582;9.962;2022-11-03T00:46:23;9.50;99.90
4749;DHT22;2388;53.582;9.962;2022-11-03T00:48:50;9.50;99.90
4749;DHT22;2388;53.582;9.962;2022-11-03T00:51:23;9.50;99.90
4749;DHT22;2388;53.582;9.962;2022-11-03T00:53:56;9.40;99.90
4749;DHT22;2388;53.582;9.962;2022-11-03T00:56:26;9.40;99.90
4749;DHT22;2388;53.582;9.962;2022-11-03T00:58:53;9.50;99.90
4749;DHT22;2388;53.582;9.962;2022-11-03T01:01:24;9.50;99.90
4749;DHT22;2388;53.582;9.962;2022-11-03T01:03:55;9.50;99.90
4749;DHT22;2388;53.582;9.962;2022-11-03T01:06:41;9.50;99.90
4749;DHT22;2388;53.582;9.962;2022-11-03T01:09:39;9.50;99.90
4749;DHT22;2388;53.582;9.962;2022-11-03T01:12:11;9.40;99.90
4749;DHT22;2388;53.582;9.962;2022-11-03T01:17:14;9.40;99.90
4749;DHT22;2388;53.582;9.962;2022-11-03T01:19:40;9.40;99.90
4749;DHT22;2388;53.582;9.962;2022-11-03T01:22:05;9.40;99.90
4749;DHT22;2388;53.582;9.962;2022-11-03T01:24:31;9.40;99.90
4749;DHT22;2388;53.582;9.962;2022-11-03T01:26:58;9.40;99.90
4749;DHT22;2388;53.582;9.962;2022-11-03T01:29:23;9.30;99.90
4749;DHT22;2388;53.582;9.962;2022-11-03T01:31:49;9.30;99.90
4749;DHT22;2388;53.582;9.962;2022-11-03T01:34:16;9.30;99.90
4749;DHT22;2388;53.582;9.962;2022-11-03T01:36:43;9.30;99.90
4749;DHT22;2388;53.582;9.962;2022-11-03T01:39:13;9.30;99.90
4749;DHT22;2388;53.582;9.962;2022-11-03T01:41:40;9.30;99.90
4749;DHT22;2388;53.582;9.962;2022-11-03T01:46:35;9.30;99.90
4749;DHT22;2388;53.582;9.962;2022-11-03T01:49:07;9.30;99.90
4749;DHT22;2388;53.582;9.962;2022-11-03T01:51:36;9.30;99.90
4749;DHT22;2388;53.582;9.962;2022-11-03T01:54:08;9.30;99.90
4749;DHT22;2388;53.582;9.962;2022-11-03T01:56:38;9.30;99.90
4749;DHT22;2388;53.582;9.962;2022-11-03T01:59:05;9.30;99.90
4749;DHT22;2388;53.582;9.962;2022-11-03T02:01:31;9.30;99.90
4749;DHT22;2388;53.582;9.962;2022-11-03T02:04:01;9.30;99.90
4749;DHT22;2388;53.582;9.962;2022-11-03T02:06:30;9.30;99.90
4749;DHT22;2388;53.582;9.962;2022-11-03T02:09:06;9.30;99.90
4749;DHT22;2388;53.582;9.962;2022-11-03T02:11:33;9.30;99.90
4749;DHT22;2388;53.582;9.962;2022-11-03T02:14:17;9.30;99.90
4749;DHT22;2388;53.582;9.962;2022-11-03T02:16:55;9.30;99.90
4749;DHT22;2388;53.582;9.962;2022-11-03T02:27:58;9.30;99.90
4749;DHT22;2388;53.582;9.962;2022-11-03T02:30:25;9.30;99.90
4749;DHT22;2388;53.582;9.962;2022-11-03T02:32:57;9.30;99.90
4749;DHT22;2388;53.582;9.962;2022-11-03T02:35:30;9.30;99.90
4749;DHT22;2388;53.582;9.962;2022-11-03T02:38:01;9.30;99.90
4749;DHT22;2388;53.582;9.962;2022-11-03T02:40:36;9.30;99.90
4749;DHT22;2388;53.582;9.962;2022-11-03T02:43:04;9.30;99.90
4749;DHT22;2388;53.582;9.962;2022-11-03T02:45:30;9.30;99.90
4749;DHT22;2388;53.582;9.962;2022-11-03T02:47:58;9.30;99.90
4749;DHT22;2388;53.582;9.962;2022-11-03T02:50:29;9.30;99.90
4749;DHT22;2388;53.582;9.962;2022-11-03T02:52:55;9.30;99.90
4749;DHT22;2388;53.582;9.962;2022-11-03T03:03:25;9.40;99.90
4749;DHT22;2388;53.582;9.962;2022-11-03T03:05:57;9.40;99.90
4749;DHT22;2388;53.582;9.962;2022-11-03T03:08:25;9.40;99.90
4749;DHT22;2388;53.582;9.962;2022-11-03T03:10:51;9.40;99.90
4749;DHT22;2388;53.582;9.962;2022-11-03T03:13:19;9.40;99.90
4749;DHT22;2388;53.582;9.962;2022-11-03T03:15:52;9.50;99.90
4749;DHT22;2388;53.582;9.962;2022-11-03T03:18:40;9.50;99.90
4749;DHT22;2388;53.582;9.962;2022-11-03T03:21:14;9.50;99.90
4749;DHT22;2388;53.582;9.962;2022-11-03T03:23:46;9.50;99.90
4749;DHT22;2388;53.582;9.962;2022-11-03T03:26:27;9.50;99.90
4749;DHT22;2388;53.582;9.962;2022-11-03T03:28:58;9.50;99.90
4749;DHT22;2388;53.582;9.962;2022-11-03T03:31:27;9.40;99.90
4749;DHT22;2388;53.582;9.962;2022-11-03T03:33:55;9.40;99.90
4749;DHT22;2388;53.582;9.962;2022-11-03T03:36:23;9.50;99.90
4749;DHT22;2388;53.582;9.962;2022-11-03T03:38:54;9.40;99.90
4749;DHT22;2388;53.582;9.962;2022-11-03T03:41:21;9.40;99.90
4749;DHT22;2388;53.582;9.962;2022-11-03T03:43:53;9.40;99.90
4749;DHT22;2388;53.582;9.962;2022-11-03T03:46:21;9.40;99.90
4749;DHT22;2388;53.582;9.962;2022-11-03T03:48:48;9.40;99.90
4749;DHT22;2388;53.582;9.962;2022-11-03T03:51:15;9.40;99.90
4749;DHT22;2388;53.582;9.962;2022-11-03T03:53:43;9.30;99.90
4749;DHT22;2388;53.582;9.962;2022-11-03T03:56:08;9.30;99.90
4749;DHT22;2388;53.582;9.962;2022-11-03T03:58:34;9.30;99.90
4749;DHT22;2388;53.582;9.962;2022-11-03T04:01:00;9.30;99.90
4749;DHT22;2388;53.582;9.962;2022-11-03T04:03:25;9.30;99.90
4749;DHT22;2388;53.582;9.962;2022-11-03T04:05:54;9.30;99.90
4749;DHT22;2388;53.582;9.962;2022-11-03T04:08:20;9.30;99.90
4749;DHT22;2388;53.582;9.962;2022-11-03T04:10:45;9.30;99.90
4749;DHT22;2388;53.582;9.962;2022-11-03T04:13:29;9.30;99.90
4749;DHT22;2388;53.582;9.962;2022-11-03T04:16:14;9.30;99.90
4749;DHT22;2388;53.582;9.962;2022-11-03T04:18:58;9.40;99.90
4749;DHT22;2388;53.582;9.962;2022-11-03T04:21:42;9.30;99.90
4749;DHT22;2388;53.582;9.962;2022-11-03T04:24:26;9.30;99.90
4749;DHT22;2388;53.582;9.962;2022-11-03T04:26:51;9.30;99.90
4749;DHT22;2388;53.582;9.962;2022-11-03T04:29:17;9.40;99.90
4749;DHT22;2388;53.582;9.962;2022-11-03T04:31:43;9.30;99.90
4749;DHT22;2388;53.582;9.962;2022-11-03T04:34:12;9.30;99.90
4749;DHT22;2388;53.582;9.962;2022-11-03T04:36:37;9.30;99.90
4749;DHT22;2388;53.582;9.962;2022-11-03T04:39:17;9.30;99.90
4749;DHT22;2388;53.582;9.962;2022-11-03T04:41:43;9.30;99.90
4749;DHT22;2388;53.582;9.962;2022-11-03T04:44:14;9.30;99.90
4749;DHT22;2388;53.582;9.962;2022-11-03T04:46:41;9.30;99.90
4749;DHT22;2388;53.582;9.962;2022-11-03T04:49:13;9.40;99.90
4749;DHT22;2388;53.582;9.962;2022-11-03T04:51:40;9.30;99.90
4749;DHT22;2388;53.582;9.962;2022-11-03T04:54:12;9.30;99.90
4749;DHT22;2388;53.582;9.962;2022-11-03T04:56:40;9.30;99.90
4749;DHT22;2388;53.582;9.962;2022-11-03T04:59:13;9.30;99.90
4749;DHT22;2388;53.582;9.962;2022-11-03T05:01:39;9.30;99.90
4749;DHT22;2388;53.582;9.962;2022-11-03T05:04:11;9.30;99.90
4749;DHT22;2388;53.582;9.962;2022-11-03T05:06:37;9.30;99.90
4749;DHT22;2388;53.582;9.962;2022-11-03T05:09:28;9.30;99.90
4749;DHT22;2388;53.582;9.962;2022-11-03T05:11:54;9.30;99.90
4749;DHT22;2388;53.582;9.962;2022-11-03T05:14:23;9.30;99.90
4749;DHT22;2388;53.582;9.962;2022-11-03T05:16:50;9.30;99.90
4749;DHT22;2388;53.582;9.962;2022-11-03T05:19:22;9.30;99.90
4749;DHT22;2388;53.582;9.962;2022-11-03T05:21:49;9.30;99.90
4749;DHT22;2388;53.582;9.962;2022-11-03T05:24:18;9.30;99.90
4749;DHT22;2388;53.582;9.962;2022-11-03T05:26:44;9.30;99.90
4749;DHT22;2388;53.582;9.962;2022-11-03T05:29:16;9.30;99.90
4749;DHT22;2388;53.582;9.962;2022-11-03T05:31:43;9.30;99.90
4749;DHT22;2388;53.582;9.962;2022-11-03T05:34:34;9.30;99.90
4749;DHT22;2388;53.582;9.962;2022-11-03T05:37:12;9.20;99.90
4749;DHT22;2388;53.582;9.962;2022-11-03T05:39:45;9.20;99.90
4749;DHT22;2388;53.582;9.962;2022-11-03T05:42:31;9.30;99.90
4749;DHT22;2388;53.582;9.962;2022-11-03T05:44:59;9.20;99.90
4749;DHT22;2388;53.582;9.962;2022-11-03T05:47:37;9.20;99.90
4749;DHT22;2388;53.582;9.962;2022-11-03T05:50:17;9.20;99.90
4749;DHT22;2388;53.582;9.962;2022-11-03T05:52:45;9.20;99.90
4749;DHT22;2388;53.582;9.962;2022-11-03T05:55:34;9.20;99.90
4749;DHT22;2388;53.582;9.962;2022-11-03T05:58:11;9.20;99.90
4749;DHT22;2388;53.582;9.962;2022-11-03T06:00:41;9.20;99.90
4749;DHT22;2388;53.582;9.962;2022-11-03T06:03:06;9.20;99.90
4749;DHT22;2388;53.582;9.962;2022-11-03T06:05:37;9.30;99.90
4749;DHT22;2388;53.582;9.962;2022-11-03T06:08:13;9.20;99.90
4749;DHT22;2388;53.582;9.962;2022-11-03T06:10:45;9.30;99.90
4749;DHT22;2388;53.582;9.962;2022-11-03T06:13:18;9.30;99.90
4749;DHT22;2388;53.582;9.962;2022-11-03T06:15:45;9.30;99.90
4749;DHT22;2388;53.582;9.962;2022-11-03T06:18:19;9.30;99.90
4749;DHT22;2388;53.582;9.962;2022-11-03T06:20:57;9.30;99.90
4749;DHT22;2388;53.582;9.962;2022-11-03T06:23:24;9.30;99.90
4749;DHT22;2388;53.582;9.962;2022-11-03T06:25:54;9.30;99.90
4749;DHT22;2388;53.582;9.962;2022-11-03T06:28:23;9.30;99.90
4749;DHT22;2388;53.582;9.962;2022-11-03T06:30:49;9.40;99.90
4749;DHT22;2388;53.582;9.962;2022-11-03T06:33:22;9.30;99.90
4749;DHT22;2388;53.582;9.962;2022-11-03T06:35:51;9.30;99.90
4749;DHT22;2388;53.582;9.962;2022-11-03T06:38:21;9.40;99.90
4749;DHT22;2388;53.582;9.962;2022-11-03T06:40:51;9.40;99.90
4749;DHT22;2388;53.582;9.962;2022-11-03T06:43:22;9.40;99.90
4749;DHT22;2388;53.582;9.962;2022-11-03T06:45:57;9.40;99.90
4749;DHT22;2388;53.582;9.962;2022-11-03T06:48:25;9.40;99.90
4749;DHT22;2388;53.582;9.962;2022-11-03T06:50:52;9.40;99.90
4749;DHT22;2388;53.582;9.962;2022-11-03T06:53:24;9.40;99.90
4749;DHT22;2388;53.582;9.962;2022-11-03T06:55:50;9.40;99.90
4749;DHT22;2388;53.582;9.962;2022-11-03T06:58:23;9.40;99.90
4749;DHT22;2388;53.582;9.962;2022-11-03T07:00:50;9.50;99.90
4749;DHT22;2388;53.582;9.962;2022-11-03T07:03:26;9.50;99.90
4749;DHT22;2388;53.582;9.962;2022-11-03T07:08:36;9.50;99.90
4749;DHT22;2388;53.582;9.962;2022-11-03T07:11:16;9.50;99.90
4749;DHT22;2388;53.582;9.962;2022-11-03T07:13:43;9.50;99.90
4749;DHT22;2388;53.582;9.962;2022-11-03T07:19:09;9.60;99.90
4749;DHT22;2388;53.582;9.962;2022-11-03T07:21:37;9.60;99.90
4749;DHT22;2388;53.582;9.962;2022-11-03T07:26:42;10.10;99.90
4749;DHT22;2388;53.582;9.962;2022-11-03T07:29:14;10.20;99.90
4749;DHT22;2388;53.582;9.962;2022-11-03T07:31:42;10.40;99.90
4749;DHT22;2388;53.582;9.962;2022-11-03T07:34:13;10.60;99.90
4749;DHT22;2388;53.582;9.962;2022-11-03T07:36:39;10.60;99.90
4749;DHT22;2388;53.582;9.962;2022-11-03T07:39:12;10.60;99.90
4749;DHT22;2388;53.582;9.962;2022-11-03T07:41:40;10.60;99.90
4749;DHT22;2388;53.582;9.962;2022-11-03T07:44:12;10.50;99.90
4749;DHT22;2388;53.582;9.962;2022-11-03T07:46:38;10.40;99.90
4749;DHT22;2388;53.582;9.962;2022-11-03T07:49:04;10.30;99.90
4749;DHT22;2388;53.582;9.962;2022-11-03T07:51:36;10.10;99.90
4749;DHT22;2388;53.582;9.962;2022-11-03T07:56:55;10.10;99.90
4749;DHT22;2388;53.582;9.962;2022-11-03T07:59:34;10.10;99.90
4749;DHT22;2388;53.582;9.962;2022-11-03T08:02:01;10.10;99.90
4749;DHT22;2388;53.582;9.962;2022-11-03T08:04:35;10.20;99.90
4749;DHT22;2388;53.582;9.962;2022-11-03T08:07:01;10.40;99.90
4749;DHT22;2388;53.582;9.962;2022-11-03T08:09:26;10.50;99.90
4749;DHT22;2388;53.582;9.962;2022-11-03T08:11:52;10.50;99.90
4749;DHT22;2388;53.582;9.962;2022-11-03T08:14:18;10.40;99.90
4749;DHT22;2388;53.582;9.962;2022-11-03T08:16:44;10.40;99.90
4749;DHT22;2388;53.582;9.962;2022-11-03T08:19:10;10.30;99.90
4749;DHT22;2388;53.582;9.962;2022-11-03T08:21:35;10.20;99.90
4749;DHT22;2388;53.582;9.962;2022-11-03T08:24:01;10.20;99.90
4749;DHT22;2388;53.582;9.962;2022-11-03T08:26:27;10.30;99.90
4749;DHT22;2388;53.582;9.962;2022-11-03T08:28:52;10.20;99.90
4749;DHT22;2388;53.582;9.962;2022-11-03T08:31:18;10.30;99.90
4749;DHT22;2388;53.582;9.962;2022-11-03T08:33:43;10.30;99.90
4749;DHT22;2388;53.582;9.962;2022-11-03T08:36:09;10.30;99.90
4749;DHT22;2388;53.582;9.962;2022-11-03T08:38:35;10.30;99.90
4749;DHT22;2388;53.582;9.962;2022-11-03T08:41:02;10.40;99.90
4749;DHT22;2388;53.582;9.962;2022-11-03T08:43:28;10.40;99.90
4749;DHT22;2388;53.582;9.962;2022-11-03T08:45:53;10.40;99.90
4749;DHT22;2388;53.582;9.962;2022-11-03T08:48:23;10.50;99.90
4749;DHT22;2388;53.582;9.962;2022-11-03T08:50:51;10.50;99.90
4749;DHT22;2388;53.582;9.962;2022-11-03T08:53:19;10.60;99.90
4749;DHT22;2388;53.582;9.962;2022-11-03T08:55:44;10.70;99.90
4749;DHT22;2388;53.582;9.962;2022-11-03T08:58:10;10.70;99.90
4749;DHT22;2388;53.582;9.962;2022-11-03T09:00:35;10.70;99.90
4749;DHT22;2388;53.582;9.962;2022-11-03T09:03:01;10.70;99.90
4749;DHT22;2388;53.582;9.962;2022-11-03T09:05:27;10.70;99.90
4749;DHT22;2388;53.582;9.962;2022-11-03T09:07:52;10.70;99.90
4749;DHT22;2388;53.582;9.962;2022-11-03T09:10:18;10.90;99.90
4749;DHT22;2388;53.582;9.962;2022-11-03T09:12:43;11.00;99.90
4749;DHT22;2388;53.582;9.962;2022-11-03T09:15:09;11.20;99.90
4749;DHT22;2388;53.582;9.962;2022-11-03T09:17:35;11.40;99.90
4749;DHT22;2388;53.582;9.962;2022-11-03T09:20:00;11.30;99.90
4749;DHT22;2388;53.582;9.962;2022-11-03T09:22:26;11.20;99.90
4749;DHT22;2388;53.582;9.962;2022-11-03T09:24:52;11.20;99.90
4749;DHT22;2388;53.582;9.962;2022-11-03T09:27:17;11.10;99.90
4749;DHT22;2388;53.582;9.962;2022-11-03T09:29:43;11.10;99.90
4749;DHT22;2388;53.582;9.962;2022-11-03T09:32:08;11.10;99.90
4749;DHT22;2388;53.582;9.962;2022-11-03T09:34:34;11.10;99.90
4749;DHT22;2388;53.582;9.962;2022-11-03T09:36:59;11.10;99.90
4749;DHT22;2388;53.582;9.962;2022-11-03T09:39:25;11.10;99.90
4749;DHT22;2388;53.582;9.962;2022-11-03T09:41:51;11.10;99.90
4749;DHT22;2388;53.582;9.962;2022-11-03T09:44:18;11.10;99.90
4749;DHT22;2388;53.582;9.962;2022-11-03T09:46:43;11.10;99.90
4749;DHT22;2388;53.582;9.962;2022-11-03T09:49:13;11.20;99.90
4749;DHT22;2388;53.582;9.962;2022-11-03T09:51:40;11.20;99.90
4749;DHT22;2388;53.582;9.962;2022-11-03T09:54:09;11.20;99.90
4749;DHT22;2388;53.582;9.962;2022-11-03T09:56:36;11.20;99.90
4749;DHT22;2388;53.582;9.962;2022-11-03T09:59:11;11.20;99.90
4749;DHT22;2388;53.582;9.962;2022-11-03T10:01:37;11.30;99.90
4749;DHT22;2388;53.582;9.962;2022-11-03T10:04:03;11.30;99.90
4749;DHT22;2388;53.582;9.962;2022-11-03T10:06:28;11.40;99.90
4749;DHT22;2388;53.582;9.962;2022-11-03T10:08:54;11.40;99.90
4749;DHT22;2388;53.582;9.962;2022-11-03T10:11:20;11.50;99.90
4749;DHT22;2388;53.582;9.962;2022-11-03T10:13:51;11.50;99.90
4749;DHT22;2388;53.582;9.962;2022-11-03T10:16:20;11.50;99.90
4749;DHT22;2388;53.582;9.962;2022-11-03T10:18:46;11.50;99.90
4749;DHT22;2388;53.582;9.962;2022-11-03T10:21:14;11.60;99.90
4749;DHT22;2388;53.582;9.962;2022-11-03T10:23:39;11.60;99.90
4749;DHT22;2388;53.582;9.962;2022-11-03T10:26:16;11.60;99.90
4749;DHT22;2388;53.582;9.962;2022-11-03T10:29:03;11.70;99.90
4749;DHT22;2388;53.582;9.962;2022-11-03T10:31:34;11.80;99.90
4749;DHT22;2388;53.582;9.962;2022-11-03T10:34:00;11.80;99.90
4749;DHT22;2388;53.582;9.962;2022-11-03T10:36:32;11.90;99.90
4749;DHT22;2388;53.582;9.962;2022-11-03T10:38:58;11.90;99.90
4749;DHT22;2388;53.582;9.962;2022-11-03T10:41:28;12.00;99.90
4749;DHT22;2388;53.582;9.962;2022-11-03T10:44:16;12.00;99.90
4749;DHT22;2388;53.582;9.962;2022-11-03T10:47:02;12.10;99.90
4749;DHT22;2388;53.582;9.962;2022-11-03T10:49:32;12.10;99.90
4749;DHT22;2388;53.582;9.962;2022-11-03T10:52:22;12.30;99.90
4749;DHT22;2388;53.582;9.962;2022-11-03T10:54:49;12.60;99.90
4749;DHT22;2388;53.582;9.962;2022-11-03T10:57:15;12.60;99.90
4749;DHT22;2388;53.582;9.962;2022-11-03T10:59:43;12.60;99.90
4749;DHT22;2388;53.582;9.962;2022-11-03T11:02:19;12.60;99.90
4749;DHT22;2388;53.582;9.962;2022-11-03T11:04:46;12.60;99.90
4749;DHT22;2388;53.582;9.962;2022-11-03T11:07:18;12.70;99.90
4749;DHT22;2388;53.582;9.962;2022-11-03T11:09:44;12.80;99.90
4749;DHT22;2388;53.582;9.962;2022-11-03T11:12:20;12.80;99.90
4749;DHT22;2388;53.582;9.962;2022-11-03T11:15:03;12.80;99.90
4749;DHT22;2388;53.582;9.962;2022-11-03T11:17:45;12.90;99.90
4749;DHT22;2388;53.582;9.962;2022-11-03T11:22:44;13.00;99.90
4749;DHT22;2388;53.582;9.962;2022-11-03T11:25:10;13.10;99.90
4749;DHT22;2388;53.582;9.962;2022-11-03T11:30:55;13.10;99.90
4749;DHT22;2388;53.582;9.962;2022-11-03T11:32:58;13.20;99.90
4749;DHT22;2388;53.582;9.962;2022-11-03T11:37:51;13.40;99.90
4749;DHT22;2388;53.582;9.962;2022-11-03T11:46:22;13.40;99.90
4749;DHT22;2388;53.582;9.962;2022-11-03T11:51:33;13.40;99.90
4749;DHT22;2388;53.582;9.962;2022-11-03T11:53:59;13.30;99.90
4749;DHT22;2388;53.582;9.962;2022-11-03T11:56:28;13.40;99.90
4749;DHT22;2388;53.582;9.962;2022-11-03T11:58:54;13.30;99.90
4749;DHT22;2388;53.582;9.962;2022-11-03T12:01:24;13.30;99.90
4749;DHT22;2388;53.582;9.962;2022-11-03T12:03:55;13.40;99.90
4749;DHT22;2388;53.582;9.962;2022-11-03T12:06:32;13.40;99.90
4749;DHT22;2388;53.582;9.962;2022-11-03T12:16:54;13.50;99.90
4749;DHT22;2388;53.582;9.962;2022-11-03T12:22:11;13.50;99.90
4749;DHT22;2388;53.582;9.962;2022-11-03T12:24:45;13.50;99.90
4749;DHT22;2388;53.582;9.962;2022-11-03T12:30:04;13.60;99.90
4749;DHT22;2388;53.582;9.962;2022-11-03T12:32:31;13.60;99.90
4749;DHT22;2388;53.582;9.962;2022-11-03T12:34:57;13.70;99.90
4749;DHT22;2388;53.582;9.962;2022-11-03T12:37:22;13.70;99.90
4749;DHT22;2388;53.582;9.962;2022-11-03T12:39:48;13.80;99.90
4749;DHT22;2388;53.582;9.962;2022-11-03T12:42:13;13.80;99.90
4749;DHT22;2388;53.582;9.962;2022-11-03T12:44:39;13.90;99.90
4749;DHT22;2388;53.582;9.962;2022-11-03T12:47:04;13.90;99.90
4749;DHT22;2388;53.582;9.962;2022-11-03T12:49:30;13.90;99.90
4749;DHT22;2388;53.582;9.962;2022-11-03T12:51:55;13.90;99.90
4749;DHT22;2388;53.582;9.962;2022-11-03T12:54:24;13.90;99.90
4749;DHT22;2388;53.582;9.962;2022-11-03T12:56:50;13.80;99.90
4749;DHT22;2388;53.582;9.962;2022-11-03T12:59:17;13.80;99.90
4749;DHT22;2388;53.582;9.962;2022-11-03T13:01:42;13.80;99.90
4749;DHT22;2388;53.582;9.962;2022-11-03T13:04:08;13.80;99.90
4749;DHT22;2388;53.582;9.962;2022-11-03T13:06:33;13.80;99.90
4749;DHT22;2388;53.582;9.962;2022-11-03T13:08:59;13.70;99.90
4749;DHT22;2388;53.582;9.962;2022-11-03T13:11:24;13.80;99.90
4749;DHT22;2388;53.582;9.962;2022-11-03T13:14:09;13.70;99.90
4749;DHT22;2388;53.582;9.962;2022-11-03T13:16:34;13.70;99.90
4749;DHT22;2388;53.582;9.962;2022-11-03T13:19:00;13.80;99.90
4749;DHT22;2388;53.582;9.962;2022-11-03T13:21:25;13.70;99.90
4749;DHT22;2388;53.582;9.962;2022-11-03T13:23:51;13.70;99.90
4749;DHT22;2388;53.582;9.962;2022-11-03T13:26:17;13.70;99.90
4749;DHT22;2388;53.582;9.962;2022-11-03T13:28:43;13.70;99.90
4749;DHT22;2388;53.582;9.962;2022-11-03T13:31:09;13.70;99.90
4749;DHT22;2388;53.582;9.962;2022-11-03T13:33:35;13.70;99.90
4749;DHT22;2388;53.582;9.962;2022-11-03T13:36:00;13.70;99.90
4749;DHT22;2388;53.582;9.962;2022-11-03T13:38:25;13.70;99.90
4749;DHT22;2388;53.582;9.962;2022-11-03T13:40:51;13.70;99.90
4749;DHT22;2388;53.582;9.962;2022-11-03T13:43:16;13.70;99.90
4749;DHT22;2388;53.582;9.962;2022-11-03T13:45:42;13.70;99.90
4749;DHT22;2388;53.582;9.962;2022-11-03T13:48:07;13.70;99.90
4749;DHT22;2388;53.582;9.962;2022-11-03T13:50:33;13.70;99.90
4749;DHT22;2388;53.582;9.962;2022-11-03T13:52:58;13.60;99.90
4749;DHT22;2388;53.582;9.962;2022-11-03T13:55:24;13.60;99.90
4749;DHT22;2388;53.582;9.962;2022-11-03T13:57:49;13.60;99.90
4749;DHT22;2388;53.582;9.962;2022-11-03T14:00:15;13.60;99.90
4749;DHT22;2388;53.582;9.962;2022-11-03T14:02:41;13.60;99.90
4749;DHT22;2388;53.582;9.962;2022-11-03T14:05:08;13.60;99.90
4749;DHT22;2388;53.582;9.962;2022-11-03T14:07:34;13.50;99.90
4749;DHT22;2388;53.582;9.962;2022-11-03T14:09:59;13.50;99.90
4749;DHT22;2388;53.582;9.962;2022-11-03T14:12:25;13.50;99.90
4749;DHT22;2388;53.582;9.962;2022-11-03T14:14:57;13.50;99.90
4749;DHT22;2388;53.582;9.962;2022-11-03T14:17:23;13.50;99.90
4749;DHT22;2388;53.582;9.962;2022-11-03T14:19:49;13.40;99.90
4749;DHT22;2388;53.582;9.962;2022-11-03T14:22:15;13.40;99.90
4749;DHT22;2388;53.582;9.962;2022-11-03T14:24:41;13.40;99.90
4749;DHT22;2388;53.582;9.962;2022-11-03T14:27:06;13.40;99.90
4749;DHT22;2388;53.582;9.962;2022-11-03T14:29:33;13.40;99.90
4749;DHT22;2388;53.582;9.962;2022-11-03T14:31:58;13.30;99.90
4749;DHT22;2388;53.582;9.962;2022-11-03T14:34:24;13.30;99.90
4749;DHT22;2388;53.582;9.962;2022-11-03T14:36:49;13.30;99.90
4749;DHT22;2388;53.582;9.962;2022-11-03T14:39:14;13.30;99.90
4749;DHT22;2388;53.582;9.962;2022-11-03T14:41:40;13.30;99.90
4749;DHT22;2388;53.582;9.962;2022-11-03T14:44:24;13.30;99.90
4749;DHT22;2388;53.582;9.962;2022-11-03T14:46:49;13.30;99.90
4749;DHT22;2388;53.582;9.962;2022-11-03T14:49:15;13.30;99.90
4749;DHT22;2388;53.582;9.962;2022-11-03T14:51:40;13.30;99.90
4749;DHT22;2388;53.582;9.962;2022-11-03T14:54:06;13.30;99.90
4749;DHT22;2388;53.582;9.962;2022-11-03T14:56:31;13.30;99.90
4749;DHT22;2388;53.582;9.962;2022-11-03T14:58:57;13.40;99.90
4749;DHT22;2388;53.582;9.962;2022-11-03T15:01:22;13.40;99.90
4749;DHT22;2388;53.582;9.962;2022-11-03T15:03:48;13.40;99.90
4749;DHT22;2388;53.582;9.962;2022-11-03T15:06:13;13.40;99.90
4749;DHT22;2388;53.582;9.962;2022-11-03T15:08:39;13.40;99.90
4749;DHT22;2388;53.582;9.962;2022-11-03T15:11:05;13.40;99.90
4749;DHT22;2388;53.582;9.962;2022-11-03T15:13:33;13.40;99.90
4749;DHT22;2388;53.582;9.962;2022-11-03T15:15:58;13.30;99.90
4749;DHT22;2388;53.582;9.962;2022-11-03T15:18:24;13.30;99.90
4749;DHT22;2388;53.582;9.962;2022-11-03T15:20:50;13.30;99.90
4749;DHT22;2388;53.582;9.962;2022-11-03T15:23:16;13.30;99.90
4749;DHT22;2388;53.582;9.962;2022-11-03T15:25:42;13.20;99.90
4749;DHT22;2388;53.582;9.962;2022-11-03T15:28:07;13.20;99.90
4749;DHT22;2388;53.582;9.962;2022-11-03T15:30:33;13.30;99.90
4749;DHT22;2388;53.582;9.962;2022-11-03T15:32:59;13.30;99.90
4749;DHT22;2388;53.582;9.962;2022-11-03T15:35:25;13.30;99.90
4749;DHT22;2388;53.582;9.962;2022-11-03T15:37:50;13.30;99.90
4749;DHT22;2388;53.582;9.962;2022-11-03T15:40:17;13.30;99.90
4749;DHT22;2388;53.582;9.962;2022-11-03T15:42:42;13.20;99.90
4749;DHT22;2388;53.582;9.962;2022-11-03T15:45:12;13.20;99.90
4749;DHT22;2388;53.582;9.962;2022-11-03T15:47:37;13.20;99.90
4749;DHT22;2388;53.582;9.962;2022-11-03T15:50:04;13.20;99.90
4749;DHT22;2388;53.582;9.962;2022-11-03T15:52:30;13.20;99.90
4749;DHT22;2388;53.582;9.962;2022-11-03T15:54:55;13.20;99.90
4749;DHT22;2388;53.582;9.962;2022-11-03T15:57:21;13.30;99.90
4749;DHT22;2388;53.582;9.962;2022-11-03T15:59:46;13.20;99.90
4749;DHT22;2388;53.582;9.962;2022-11-03T16:02:12;13.20;99.90
4749;DHT22;2388;53.582;9.962;2022-11-03T16:04:37;13.20;99.90
4749;DHT22;2388;53.582;9.962;2022-11-03T16:07:03;13.30;99.90
4749;DHT22;2388;53.582;9.962;2022-11-03T16:09:28;13.30;99.90
4749;DHT22;2388;53.582;9.962;2022-11-03T16:11:54;13.20;99.90
4749;DHT22;2388;53.582;9.962;2022-11-03T16:14:19;13.20;99.90
4749;DHT22;2388;53.582;9.962;2022-11-03T16:16:45;13.10;99.90
4749;DHT22;2388;53.582;9.962;2022-11-03T16:19:10;13.10;99.90
4749;DHT22;2388;53.582;9.962;2022-11-03T16:21:36;13.10;99.90
4749;DHT22;2388;53.582;9.962;2022-11-03T16:24:02;13.20;99.90
4749;DHT22;2388;53.582;9.962;2022-11-03T16:26:28;13.20;99.90
4749;DHT22;2388;53.582;9.962;2022-11-03T16:28:56;13.00;99.90
4749;DHT22;2388;53.582;9.962;2022-11-03T16:31:21;12.90;99.90
4749;DHT22;2388;53.582;9.962;2022-11-03T16:33:47;12.90;99.90
4749;DHT22;2388;53.582;9.962;2022-11-03T16:36:12;12.80;99.90
4749;DHT22;2388;53.582;9.962;2022-11-03T16:38:38;12.80;99.90
4749;DHT22;2388;53.582;9.962;2022-11-03T16:41:03;12.70;99.90
4749;DHT22;2388;53.582;9.962;2022-11-03T16:43:29;12.70;99.90
4749;DHT22;2388;53.582;9.962;2022-11-03T16:45:55;12.70;99.90
4749;DHT22;2388;53.582;9.962;2022-11-03T16:48:21;12.70;99.90
4749;DHT22;2388;53.582;9.962;2022-11-03T16:50:46;12.70;99.90
4749;DHT22;2388;53.582;9.962;2022-11-03T16:53:12;12.40;99.90
4749;DHT22;2388;53.582;9.962;2022-11-03T16:55:38;12.60;99.90
4749;DHT22;2388;53.582;9.962;2022-11-03T16:58:03;12.60;99.90
4749;DHT22;2388;53.582;9.962;2022-11-03T17:00:28;12.50;99.90
4749;DHT22;2388;53.582;9.962;2022-11-03T17:02:54;12.50;99.90
4749;DHT22;2388;53.582;9.962;2022-11-03T17:05:19;12.50;99.90
4749;DHT22;2388;53.582;9.962;2022-11-03T17:07:47;12.50;99.90
4749;DHT22;2388;53.582;9.962;2022-11-03T17:10:13;12.50;99.90
4749;DHT22;2388;53.582;9.962;2022-11-03T17:12:39;12.50;99.90
4749;DHT22;2388;53.582;9.962;2022-11-03T17:15:05;12.50;99.90
4749;DHT22;2388;53.582;9.962;2022-11-03T17:17:30;12.40;99.90
4749;DHT22;2388;53.582;9.962;2022-11-03T17:19:56;12.40;99.90
4749;DHT22;2388;53.582;9.962;2022-11-03T17:22:22;12.40;99.90